Time;durP1;ratioP1;P1;durP2;ratioP2;P2;SDS_P1;SDS_P2;PMS_P1;PMS_P2;Temp;Humidity;BMP_temperature;BMP_pressure;BME280_temperature;BME280_humidity;BME280_pressure;Samples;Min_cycle;Max_cycle;Signal;HPM_P1;HPM_P2
2023/06/24 00:01:31;;;;;;;;;;;18.60;99.90;;;;;;4972274;28;19930;-66
2023/06/24 00:03:58;;;;;;;;;;;18.50;99.90;;;;;;4972228;28;19926;-66
2023/06/24 00:06:25;;;;;;;;;;;18.50;99.90;;;;;;4971589;28;19926;-66
2023/06/24 00:09:00;;;;;;;;;;;18.50;99.90;;;;;;4971949;28;19926;-66
2023/06/24 00:11:27;;;;;;;;;;;18.40;99.90;;;;;;4972189;28;19926;-66
2023/06/24 00:13:54;;;;;;;;;;;18.30;99.90;;;;;;4988128;28;19949;-67
2023/06/24 00:16:26;;;;;;;;;;;18.30;99.90;;;;;;4971813;28;19933;-66
2023/06/24 00:18:53;;;;;;;;;;;18.30;99.90;;;;;;4971731;28;19932;-66
2023/06/24 00:21:20;;;;;;;;;;;18.20;99.90;;;;;;4971894;28;20545;-65
2023/06/24 00:23:49;;;;;;;;;;;18.20;99.90;;;;;;4987990;28;19990;-67
2023/06/24 00:26:17;;;;;;;;;;;18.20;99.90;;;;;;4971815;28;20443;-66
2023/06/24 00:28:44;;;;;;;;;;;18.20;99.90;;;;;;4987867;28;19958;-67
2023/06/24 00:31:11;;;;;;;;;;;18.10;99.90;;;;;;4971961;28;19929;-66
2023/06/24 00:33:38;;;;;;;;;;;18.10;99.90;;;;;;4987801;28;19958;-67
2023/06/24 00:36:06;;;;;;;;;;;18.00;99.90;;;;;;4988113;28;19981;-65
2023/06/24 00:38:33;;;;;;;;;;;18.00;99.90;;;;;;4972674;28;19930;-66
2023/06/24 00:41:00;;;;;;;;;;;18.00;99.90;;;;;;4987646;28;19962;-67
2023/06/24 00:43:29;;;;;;;;;;;18.00;99.90;;;;;;4971947;28;20469;-67
2023/06/24 00:45:56;;;;;;;;;;;18.00;99.90;;;;;;4971340;28;20012;-66
2023/06/24 00:48:23;;;;;;;;;;;17.90;99.90;;;;;;4971076;28;19930;-67
2023/06/24 00:50:50;;;;;;;;;;;18.00;99.90;;;;;;4971748;28;20360;-66
2023/06/24 00:53:17;;;;;;;;;;;18.00;99.90;;;;;;4971596;28;19926;-66
2023/06/24 00:55:45;;;;;;;;;;;17.90;99.90;;;;;;4971648;28;19926;-66
2023/06/24 00:58:15;;;;;;;;;;;18.00;99.90;;;;;;4971345;28;19926;-66
2023/06/24 01:00:45;;;;;;;;;;;17.90;99.90;;;;;;4971266;28;19937;-65
2023/06/24 01:03:14;;;;;;;;;;;17.90;99.90;;;;;;4971465;28;19965;-66
2023/06/24 01:05:41;;;;;;;;;;;17.80;99.90;;;;;;4971558;28;19926;-66
2023/06/24 01:08:08;;;;;;;;;;;17.80;99.90;;;;;;4971407;28;19926;-64
2023/06/24 01:10:35;;;;;;;;;;;17.70;99.90;;;;;;4970995;28;19930;-66
2023/06/24 01:13:02;;;;;;;;;;;17.70;99.90;;;;;;4971310;28;19930;-64
2023/06/24 01:15:29;;;;;;;;;;;17.70;99.90;;;;;;4987695;28;19926;-65
2023/06/24 01:17:59;;;;;;;;;;;17.70;99.90;;;;;;4989441;28;19926;-64
2023/06/24 01:20:30;;;;;;;;;;;17.70;99.90;;;;;;4991055;28;19926;-66
2023/06/24 01:23:10;;;;;;;;;;;17.60;99.90;;;;;;4975039;28;20020;-66
2023/06/24 01:25:44;;;;;;;;;;;17.50;99.90;;;;;;4974737;28;20362;-66
2023/06/24 01:28:21;;;;;;;;;;;17.50;99.90;;;;;;4990523;28;19933;-63
2023/06/24 01:31:07;;;;;;;;;;;17.50;99.90;;;;;;4974622;28;19933;-66
2023/06/24 01:33:38;;;;;;;;;;;17.50;99.90;;;;;;4974739;28;20025;-66
2023/06/24 01:36:09;;;;;;;;;;;17.40;99.90;;;;;;4974652;28;19989;-66
2023/06/24 01:38:37;;;;;;;;;;;17.40;99.90;;;;;;4990364;28;19927;-65
2023/06/24 01:41:05;;;;;;;;;;;17.40;99.90;;;;;;4990622;28;19926;-66
2023/06/24 01:43:33;;;;;;;;;;;17.40;99.90;;;;;;4974757;28;19934;-66
2023/06/24 01:46:00;;;;;;;;;;;17.40;99.90;;;;;;4974276;28;20436;-65
2023/06/24 01:48:29;;;;;;;;;;;17.40;99.90;;;;;;4974068;28;19930;-64
2023/06/24 01:50:59;;;;;;;;;;;17.30;99.90;;;;;;4974248;28;19929;-66
2023/06/24 01:53:27;;;;;;;;;;;17.20;99.90;;;;;;4974132;28;19933;-65
2023/06/24 01:55:55;;;;;;;;;;;17.20;99.90;;;;;;4974179;28;20393;-65
2023/06/24 01:58:23;;;;;;;;;;;17.10;99.90;;;;;;4990209;28;19933;-66
2023/06/24 02:00:51;;;;;;;;;;;17.10;99.90;;;;;;4974404;28;19926;-65
2023/06/24 02:03:19;;;;;;;;;;;17.10;99.90;;;;;;4974308;28;19930;-65
2023/06/24 02:05:47;;;;;;;;;;;17.10;99.90;;;;;;4973887;28;20002;-65
2023/06/24 02:08:15;;;;;;;;;;;17.00;99.90;;;;;;4973828;28;19926;-66
2023/06/24 02:10:43;;;;;;;;;;;17.00;99.90;;;;;;4974155;28;19930;-66
2023/06/24 02:13:11;;;;;;;;;;;17.00;99.90;;;;;;4974144;28;19933;-66
2023/06/24 02:15:39;;;;;;;;;;;17.00;99.90;;;;;;4973969;28;19933;-65
2023/06/24 02:18:09;;;;;;;;;;;17.10;99.90;;;;;;4989952;28;19926;-67
2023/06/24 02:20:38;;;;;;;;;;;17.10;99.90;;;;;;4973914;28;19930;-65
2023/06/24 02:23:08;;;;;;;;;;;17.00;99.90;;;;;;4973683;28;19972;-65
2023/06/24 02:25:38;;;;;;;;;;;17.10;99.90;;;;;;4973841;28;19981;-66
2023/06/24 02:28:05;;;;;;;;;;;17.10;99.90;;;;;;4973381;28;19965;-66
2023/06/24 02:30:35;;;;;;;;;;;17.00;99.90;;;;;;4973557;28;19925;-66
2023/06/24 02:33:02;;;;;;;;;;;17.00;99.90;;;;;;4973407;28;20325;-65
2023/06/24 02:35:29;;;;;;;;;;;17.00;99.90;;;;;;4973516;28;19926;-64
2023/06/24 02:37:56;;;;;;;;;;;16.90;99.90;;;;;;4989646;28;20333;-65
2023/06/24 02:40:23;;;;;;;;;;;16.80;99.90;;;;;;4989769;28;19933;-66
2023/06/24 02:42:51;;;;;;;;;;;16.70;99.90;;;;;;4989523;28;19929;-64
2023/06/24 02:45:20;;;;;;;;;;;16.70;99.90;;;;;;4972767;28;20428;-64
2023/06/24 02:47:48;;;;;;;;;;;16.70;99.90;;;;;;4989272;28;19926;-65
2023/06/24 02:50:15;;;;;;;;;;;16.60;99.90;;;;;;4989679;28;19933;-65
2023/06/24 02:52:43;;;;;;;;;;;16.60;99.90;;;;;;4973128;28;19930;-66
2023/06/24 02:55:12;;;;;;;;;;;16.60;99.90;;;;;;4989277;28;19926;-66
2023/06/24 02:57:46;;;;;;;;;;;16.60;99.90;;;;;;4989189;28;19926;-66
2023/06/24 03:00:33;;;;;;;;;;;16.60;99.90;;;;;;4974386;28;19927;-66
2023/06/24 03:03:19;;;;;;;;;;;16.60;99.90;;;;;;4973138;28;19934;-65
2023/06/24 03:05:56;;;;;;;;;;;16.60;99.90;;;;;;4972814;28;19941;-66
2023/06/24 03:08:24;;;;;;;;;;;16.70;99.90;;;;;;4972699;28;19926;-64
2023/06/24 03:10:51;;;;;;;;;;;16.70;99.90;;;;;;4988891;28;19937;-66
2023/06/24 03:13:21;;;;;;;;;;;16.60;99.90;;;;;;4973094;28;20017;-66
2023/06/24 03:15:55;;;;;;;;;;;16.60;99.90;;;;;;4989087;28;19972;-66
2023/06/24 03:18:22;;;;;;;;;;;16.60;99.90;;;;;;4988708;28;20391;-67
2023/06/24 03:20:49;;;;;;;;;;;16.50;99.90;;;;;;4972528;28;19926;-66
2023/06/24 03:23:20;;;;;;;;;;;16.60;99.90;;;;;;4972676;28;19933;-66
2023/06/24 03:25:47;;;;;;;;;;;16.60;99.90;;;;;;4989106;28;19941;-66
2023/06/24 03:28:14;;;;;;;;;;;16.50;99.90;;;;;;4972213;28;19933;-66
2023/06/24 03:30:46;;;;;;;;;;;16.60;99.90;;;;;;4972141;28;19926;-66
2023/06/24 03:33:19;;;;;;;;;;;16.50;99.90;;;;;;4972276;28;19926;-67
2023/06/24 03:35:46;;;;;;;;;;;16.50;99.90;;;;;;4988920;28;19926;-67
2023/06/24 03:38:17;;;;;;;;;;;16.50;99.90;;;;;;4988387;28;19926;-65
2023/06/24 03:40:44;;;;;;;;;;;16.40;99.90;;;;;;4987605;28;19926;-64
2023/06/24 03:43:11;;;;;;;;;;;16.50;99.90;;;;;;4988660;28;20333;-66
2023/06/24 03:45:38;;;;;;;;;;;16.40;99.90;;;;;;4972549;28;19926;-66
2023/06/24 03:48:06;;;;;;;;;;;16.40;99.90;;;;;;4971975;28;20021;-65
2023/06/24 03:50:34;;;;;;;;;;;16.50;99.90;;;;;;4988386;28;19934;-66
2023/06/24 03:53:01;;;;;;;;;;;16.50;99.90;;;;;;4972004;28;19972;-65
2023/06/24 03:55:29;;;;;;;;;;;16.50;99.90;;;;;;4972019;28;19965;-66
2023/06/24 03:57:56;;;;;;;;;;;16.60;99.90;;;;;;4971599;28;19982;-64
2023/06/24 04:00:23;;;;;;;;;;;16.60;99.90;;;;;;4971988;28;19926;-67
2023/06/24 04:02:52;;;;;;;;;;;16.60;99.90;;;;;;4971960;28;19926;-64
2023/06/24 04:05:18;;;;;;;;;;;16.60;99.90;;;;;;4971840;28;19933;-66
2023/06/24 04:07:47;;;;;;;;;;;16.70;99.90;;;;;;4988051;28;20286;-66
2023/06/24 04:10:14;;;;;;;;;;;16.70;99.90;;;;;;4988450;28;20016;-66
2023/06/24 04:12:41;;;;;;;;;;;16.70;99.90;;;;;;4971839;28;19930;-66
2023/06/24 04:15:08;;;;;;;;;;;16.70;99.90;;;;;;4987964;28;19926;-66
2023/06/24 04:17:35;;;;;;;;;;;16.70;99.90;;;;;;4987752;28;19930;-66
2023/06/24 04:20:04;;;;;;;;;;;16.70;99.90;;;;;;4971878;28;19930;-67
2023/06/24 04:22:31;;;;;;;;;;;16.70;99.90;;;;;;4972166;28;20029;-66
2023/06/24 04:25:01;;;;;;;;;;;16.70;99.90;;;;;;4971742;28;19933;-67
2023/06/24 04:27:28;;;;;;;;;;;16.70;99.90;;;;;;4972002;28;20444;-66
2023/06/24 04:29:54;;;;;;;;;;;16.80;99.90;;;;;;4988008;28;19927;-66
2023/06/24 04:32:21;;;;;;;;;;;16.80;99.90;;;;;;4972004;28;19927;-66
2023/06/24 04:34:48;;;;;;;;;;;16.90;99.90;;;;;;4987843;28;20341;-66
2023/06/24 04:37:16;;;;;;;;;;;16.90;99.90;;;;;;4971799;28;19926;-66
2023/06/24 04:39:44;;;;;;;;;;;17.00;99.90;;;;;;4971634;28;19926;-67
2023/06/24 04:42:14;;;;;;;;;;;17.00;99.90;;;;;;4971556;28;19941;-67
2023/06/24 04:44:41;;;;;;;;;;;17.10;99.90;;;;;;4971611;28;20301;-65
2023/06/24 04:47:08;;;;;;;;;;;17.10;99.90;;;;;;4987799;28;19981;-66
2023/06/24 04:49:34;;;;;;;;;;;17.20;99.90;;;;;;4987827;28;19926;-66
2023/06/24 04:52:01;;;;;;;;;;;17.30;99.90;;;;;;4988453;28;19953;-66
2023/06/24 04:54:28;;;;;;;;;;;17.40;99.90;;;;;;4991250;28;19934;-64
2023/06/24 04:56:55;;;;;;;;;;;17.40;99.90;;;;;;4975068;28;19930;-67
2023/06/24 04:59:24;;;;;;;;;;;17.50;99.90;;;;;;4975248;28;19926;-67
2023/06/24 05:01:50;;;;;;;;;;;17.60;99.90;;;;;;4973478;28;19981;-65
2023/06/24 05:04:17;;;;;;;;;;;17.70;99.90;;;;;;5005829;28;19926;-67
2023/06/24 05:06:44;;;;;;;;;;;17.70;99.90;;;;;;4994445;28;19930;-64
2023/06/24 05:09:13;;;;;;;;;;;17.80;99.90;;;;;;4989038;28;19926;-66
2023/06/24 05:11:40;;;;;;;;;;;17.90;99.90;;;;;;4999195;28;19926;-66
2023/06/24 05:14:07;;;;;;;;;;;18.00;99.90;;;;;;4974735;28;19926;-65
2023/06/24 05:16:35;;;;;;;;;;;18.00;99.90;;;;;;4974718;28;19930;-66
2023/06/24 05:19:02;;;;;;;;;;;18.10;99.90;;;;;;4991016;28;19926;-65
2023/06/24 05:21:28;;;;;;;;;;;18.20;99.90;;;;;;4991281;28;19980;-66
2023/06/24 05:23:55;;;;;;;;;;;18.30;99.90;;;;;;4991140;28;19954;-66
2023/06/24 05:26:22;;;;;;;;;;;18.40;99.90;;;;;;4990784;28;19926;-63
2023/06/24 05:28:49;;;;;;;;;;;18.50;99.90;;;;;;4990907;28;19926;-65
2023/06/24 05:31:15;;;;;;;;;;;18.50;99.90;;;;;;4990613;28;19926;-67
2023/06/24 05:33:43;;;;;;;;;;;18.60;99.90;;;;;;4990696;28;20282;-66
2023/06/24 05:36:10;;;;;;;;;;;18.70;99.90;;;;;;4990655;28;19930;-65
2023/06/24 05:38:37;;;;;;;;;;;18.80;99.90;;;;;;4990704;28;19933;-65
2023/06/24 05:41:04;;;;;;;;;;;18.90;99.90;;;;;;4990512;28;19937;-66
2023/06/24 05:43:30;;;;;;;;;;;19.00;99.90;;;;;;4990886;28;19926;-66
2023/06/24 05:45:57;;;;;;;;;;;19.10;99.90;;;;;;4973929;28;19953;-67
2023/06/24 05:48:24;;;;;;;;;;;19.20;99.90;;;;;;4989213;28;20341;-67
2023/06/24 05:50:52;;;;;;;;;;;19.30;99.90;;;;;;4989562;28;19926;-67
2023/06/24 05:53:19;;;;;;;;;;;19.30;99.90;;;;;;4989574;28;19926;-67
2023/06/24 05:55:46;;;;;;;;;;;19.30;99.90;;;;;;4989962;28;19926;-66
2023/06/24 05:58:13;;;;;;;;;;;19.40;99.90;;;;;;4990235;28;19926;-63
2023/06/24 06:00:39;;;;;;;;;;;19.50;99.90;;;;;;4990431;28;19974;-62
2023/06/24 06:03:06;;;;;;;;;;;19.50;99.90;;;;;;4990331;28;19926;-60
2023/06/24 06:05:33;;;;;;;;;;;19.60;99.90;;;;;;4990780;28;19933;-66
2023/06/24 06:08:01;;;;;;;;;;;19.70;99.90;;;;;;4990319;28;19930;-63
2023/06/24 06:10:28;;;;;;;;;;;19.80;99.90;;;;;;4989907;28;19965;-64
2023/06/24 06:12:56;;;;;;;;;;;19.90;99.90;;;;;;4974223;28;19937;-64
2023/06/24 06:15:22;;;;;;;;;;;19.90;99.90;;;;;;4990244;28;19934;-61
2023/06/24 06:17:49;;;;;;;;;;;19.90;99.90;;;;;;4989924;28;19926;-64
2023/06/24 06:20:16;;;;;;;;;;;20.00;99.90;;;;;;4990368;28;19926;-60
2023/06/24 06:22:43;;;;;;;;;;;20.10;99.90;;;;;;4990530;28;19936;-60
2023/06/24 06:25:11;;;;;;;;;;;20.20;99.90;;;;;;4989747;28;20017;-66
2023/06/24 06:27:38;;;;;;;;;;;20.30;99.90;;;;;;4989505;28;19926;-65
2023/06/24 06:30:05;;;;;;;;;;;20.30;99.90;;;;;;4970264;28;19931;-61
2023/06/24 06:32:32;;;;;;;;;;;20.40;99.90;;;;;;4970211;28;19933;-63
2023/06/24 06:34:59;;;;;;;;;;;20.50;99.90;;;;;;4986082;28;19926;-62
2023/06/24 06:37:26;;;;;;;;;;;20.60;99.90;;;;;;4973565;28;19973;-66
2023/06/24 06:39:53;;;;;;;;;;;20.60;99.90;;;;;;4972987;28;19930;-65
2023/06/24 06:42:21;;;;;;;;;;;20.60;99.90;;;;;;4973249;28;19965;-66
2023/06/24 06:44:47;;;;;;;;;;;20.50;99.90;;;;;;4973455;28;19926;-67
2023/06/24 06:47:14;;;;;;;;;;;20.60;99.90;;;;;;4973266;28;19926;-67
2023/06/24 06:49:41;;;;;;;;;;;20.70;99.90;;;;;;4972722;28;19926;-66
2023/06/24 06:52:08;;;;;;;;;;;20.70;99.90;;;;;;4972869;28;19926;-65
2023/06/24 06:54:35;;;;;;;;;;;20.90;99.90;;;;;;4973367;28;19930;-65
2023/06/24 06:57:02;;;;;;;;;;;21.00;99.90;;;;;;4988479;28;19972;-65
2023/06/24 06:59:30;;;;;;;;;;;20.90;99.90;;;;;;4971103;28;20073;-65
2023/06/24 07:01:56;;;;;;;;;;;21.00;99.90;;;;;;4971808;28;19969;-66
2023/06/24 07:04:23;;;;;;;;;;;21.10;99.90;;;;;;4971780;28;20012;-66
2023/06/24 07:06:50;;;;;;;;;;;21.20;99.90;;;;;;4971359;28;19973;-67
2023/06/24 07:09:16;;;;;;;;;;;21.30;99.90;;;;;;4973337;28;19969;-66
2023/06/24 07:11:43;;;;;;;;;;;21.30;99.90;;;;;;4972372;28;20340;-66
2023/06/24 07:14:10;;;;;;;;;;;21.40;99.90;;;;;;4969724;28;20361;-66
